Dr.kaiyo — JD2325 — position and weather

sailwx.info

Track history (hours):
 
Tides and Currents Weather Stations Pressure Air Temp Water Temp Dewpoint Dewpoint Depression Visibility Wind Speed Wind Dir Waves Ship Positions

Dr.kaiyo

Last reported at 2014-Sep-17 05:33 UTC. Time now 2014-Sep-17 09:39 UTC.
Position N 34°41' E 135°12'.

Length 31 m.

Type: Other ship. MMSI: 431301823.

Date/timePositionNaut miles runAvg speedWind from/ knotsBaromVisibWave heightAir tempDewpointWater temp
2014-Sep-17 05:33N 34°41' E 135°12'3 2.7
2014-Sep-17 04:33N 34°39' E 135°12'0 0.0
2014-Sep-17 03:33N 34°39' E 135°12'8 7.8
2014-Sep-17 02:34N 34°31' E 135°09'8 7.6
2014-Sep-17 01:33N 34°39' E 135°11'2 2.3
2014-Sep-17 00:33N 34°41' E 135°13'0 0.0
2014-Sep-16 23:33N 34°41' E 135°13'1 0.7
2014-Sep-16 22:33N 34°41' E 135°12'0 0.0
2014-Sep-16 06:33N 34°41' E 135°12'0 0.0
2014-Sep-16 05:33N 34°41' E 135°12'4 4.4
2014-Sep-16 04:33N 34°38' E 135°16'4 3.5
2014-Sep-16 03:33N 34°39' E 135°12'6 5.8
2014-Sep-16 02:33N 34°33' E 135°10'3 2.6
2014-Sep-16 01:33N 34°35' E 135°12'0 0.3
2014-Sep-16 00:33N 34°35' E 135°12'7 6.9
2014-Sep-15 23:33N 34°41' E 135°12'  
2014-Sep-12 06:33N 34°41' E 135°12'9 8.9
2014-Sep-12 05:33N 34°35' E 135°05'3 3.1
2014-Sep-12 04:33N 34°34' E 135°02'2 1.5
2014-Sep-12 03:33N 34°33' E 135°00'2 2.2
2014-Sep-12 02:33N 34°31' E 135°02'1 0.7
2014-Sep-12 01:32N 34°31' E 135°02'8 7.8
2014-Sep-12 00:33N 34°32' E 135°11'9 9.3
2014-Sep-11 23:33N 34°42' E 135°12'0 0.0
2014-Sep-11 07:16N 34°41' E 135°12'4 6.2
2014-Sep-11 06:33N 34°38' E 135°16'4 3.8
2014-Sep-11 05:33N 34°41' E 135°13'0 0.0
2014-Sep-11 04:33N 34°41' E 135°13'3 3.4
2014-Sep-11 03:33N 34°39' E 135°16'5 5.2
2014-Sep-11 02:33N 34°38' E 135°10'7 6.9
2014-Sep-11 01:33N 34°32' E 135°06'9 8.9
2014-Sep-11 00:34N 34°36' E 135°15'6 6.2
2014-Sep-10 23:33N 34°41' E 135°12'0 0.0
2014-Sep-10 06:14N 34°41' E 135°12'0 0.0
2014-Sep-10 05:33N 34°41' E 135°12'8 7.9
2014-Sep-10 04:33N 34°34' E 135°12'0 0.3
2014-Sep-10 03:33N 34°34' E 135°11'4 4.3
2014-Sep-10 02:33N 34°35' E 135°06'4 4.5
2014-Sep-10 01:34N 34°38' E 135°11'3 3.3
2014-Sep-10 00:33N 34°41' E 135°13'0 0.0
2014-Sep-09 23:33N 34°41' E 135°13'1 0.7
2014-Sep-09 22:33N 34°41' E 135°12'0 0.0
2014-Sep-09 06:24N 34°41' E 135°12'0 0.3
2014-Sep-09 05:33N 34°42' E 135°13'3 3.0
2014-Sep-09 04:33N 34°39' E 135°12'0 0.0
2014-Sep-09 03:33N 34°39' E 135°12'5 4.7
2014-Sep-09 02:33N 34°34' E 135°13'0 0.4
2014-Sep-09 01:33N 34°34' E 135°12'3 2.7
2014-Sep-09 00:33N 34°35' E 135°09'7 6.8
2014-Sep-08 23:33N 34°42' E 135°13'0 0.0
2014-Sep-08 07:24N 34°41' E 135°12'3 3.0
2014-Sep-08 06:33N 34°39' E 135°11'9 9.4
2014-Sep-08 05:34N 34°30' E 135°07'4 4.3
2014-Sep-08 04:33N 34°31' E 135°12'6 5.7
2014-Sep-08 03:33N 34°31' E 135°19'4 3.8
2014-Sep-08 02:33N 34°30' E 135°15'1212.3
2014-Sep-08 01:33N 34°25' E 135°01'8 8.5
2014-Sep-08 00:33N 34°33' E 135°05'1010.5
2014-Sep-07 23:33N 34°42' E 135°12'  
Track history (hours):
 
Tides and Currents Weather Stations Pressure Air Temp Water Temp Dewpoint Dewpoint Depression Visibility Wind Speed Wind Dir Waves Ship Positions

Dr.kaiyo

Last reported at 2014-Sep-17 05:33 UTC. Time now 2014-Sep-17 09:39 UTC.
Position N 34°41' E 135°12'.

Length 31 m.

Type: Other ship. MMSI: 431301823.

Date/timePositionNaut miles runAvg speedWind from/ knotsBaromVisibWave heightAir tempDewpointWater temp
2014-Sep-17 05:33N 34°41' E 135°12'3 2.7
2014-Sep-17 04:33N 34°39' E 135°12'0 0.0
2014-Sep-17 03:33N 34°39' E 135°12'8 7.8
2014-Sep-17 02:34N 34°31' E 135°09'8 7.6
2014-Sep-17 01:33N 34°39' E 135°11'2 2.3
2014-Sep-17 00:33N 34°41' E 135°13'0 0.0
2014-Sep-16 23:33N 34°41' E 135°13'1 0.7
2014-Sep-16 22:33N 34°41' E 135°12'0 0.0
2014-Sep-16 06:33N 34°41' E 135°12'0 0.0
2014-Sep-16 05:33N 34°41' E 135°12'4 4.4
2014-Sep-16 04:33N 34°38' E 135°16'4 3.5
2014-Sep-16 03:33N 34°39' E 135°12'6 5.8
2014-Sep-16 02:33N 34°33' E 135°10'3 2.6
2014-Sep-16 01:33N 34°35' E 135°12'0 0.3
2014-Sep-16 00:33N 34°35' E 135°12'7 6.9
2014-Sep-15 23:33N 34°41' E 135°12'  
2014-Sep-12 06:33N 34°41' E 135°12'9 8.9
2014-Sep-12 05:33N 34°35' E 135°05'3 3.1
2014-Sep-12 04:33N 34°34' E 135°02'2 1.5
2014-Sep-12 03:33N 34°33' E 135°00'2 2.2
2014-Sep-12 02:33N 34°31' E 135°02'1 0.7
2014-Sep-12 01:32N 34°31' E 135°02'8 7.8
2014-Sep-12 00:33N 34°32' E 135°11'9 9.3
2014-Sep-11 23:33N 34°42' E 135°12'0 0.0
2014-Sep-11 07:16N 34°41' E 135°12'4 6.2
2014-Sep-11 06:33N 34°38' E 135°16'4 3.8
2014-Sep-11 05:33N 34°41' E 135°13'0 0.0
2014-Sep-11 04:33N 34°41' E 135°13'3 3.4
2014-Sep-11 03:33N 34°39' E 135°16'5 5.2
2014-Sep-11 02:33N 34°38' E 135°10'7 6.9
2014-Sep-11 01:33N 34°32' E 135°06'9 8.9
2014-Sep-11 00:34N 34°36' E 135°15'6 6.2
2014-Sep-10 23:33N 34°41' E 135°12'0 0.0
2014-Sep-10 06:14N 34°41' E 135°12'0 0.0
2014-Sep-10 05:33N 34°41' E 135°12'8 7.9
2014-Sep-10 04:33N 34°34' E 135°12'0 0.3
2014-Sep-10 03:33N 34°34' E 135°11'4 4.3
2014-Sep-10 02:33N 34°35' E 135°06'4 4.5
2014-Sep-10 01:34N 34°38' E 135°11'3 3.3
2014-Sep-10 00:33N 34°41' E 135°13'0 0.0
2014-Sep-09 23:33N 34°41' E 135°13'1 0.7
2014-Sep-09 22:33N 34°41' E 135°12'0 0.0
2014-Sep-09 06:24N 34°41' E 135°12'0 0.3
2014-Sep-09 05:33N 34°42' E 135°13'3 3.0
2014-Sep-09 04:33N 34°39' E 135°12'0 0.0
2014-Sep-09 03:33N 34°39' E 135°12'5 4.7
2014-Sep-09 02:33N 34°34' E 135°13'0 0.4
2014-Sep-09 01:33N 34°34' E 135°12'3 2.7
2014-Sep-09 00:33N 34°35' E 135°09'7 6.8
2014-Sep-08 23:33N 34°42' E 135°13'0 0.0
2014-Sep-08 07:24N 34°41' E 135°12'3 3.0
2014-Sep-08 06:33N 34°39' E 135°11'9 9.4
2014-Sep-08 05:34N 34°30' E 135°07'4 4.3
2014-Sep-08 04:33N 34°31' E 135°12'6 5.7
2014-Sep-08 03:33N 34°31' E 135°19'4 3.8
2014-Sep-08 02:33N 34°30' E 135°15'1212.3
2014-Sep-08 01:33N 34°25' E 135°01'8 8.5
2014-Sep-08 00:33N 34°33' E 135°05'1010.5
2014-Sep-07 23:33N 34°42' E 135°12'  

Dump ship's entire track history